Time,TemperatureF,DewpointF,PressureIn,WindDirection,WindDirectionDegrees,WindSpeedMPH,WindSpeedGustMPH,Humidity,HourlyPrecipIn,Conditions,Clouds,dailyrainin,SoftwareType,DateUTC
2013-02-09 00:00:00,26.0,21.8,30.25,East,100,16.0,22.0,84,0.00,,,0.00,VWS V14.01,2013-02-09 06:00:00,
2013-02-09 00:06:00,26.0,21.8,30.25,SE,139,12.0,19.0,84,0.00,,,0.00,VWS V14.01,2013-02-09 06:06:00,
2013-02-09 00:11:00,26.0,21.8,30.25,SSE,157,11.0,19.0,84,0.00,,,0.00,VWS V14.01,2013-02-09 06:11:00,
2013-02-09 00:16:00,26.0,21.8,30.25,ESE,119,11.0,22.0,84,0.00,,,0.00,VWS V14.01,2013-02-09 06:16:00,
2013-02-09 00:22:00,26.0,21.8,30.25,East,96,6.0,22.0,84,0.00,,,0.00,VWS V14.01,2013-02-09 06:22:00,
2013-02-09 00:27:00,26.0,21.8,30.25,SE,124,15.0,22.0,84,0.00,,,0.00,VWS V14.01,2013-02-09 06:27:00,
2013-02-09 00:30:00,26.0,22.1,30.23,ESE,106,13.0,21.0,85,0.00,,,0.00,VWS V15.00,2013-02-09 06:30:00,
2013-02-09 00:32:00,26.0,21.8,30.25,SSE,153,17.0,18.0,84,0.00,,,0.00,VWS V14.01,2013-02-09 06:32:00,
2013-02-09 00:38:00,26.0,21.8,30.25,ESE,104,13.0,18.0,84,0.00,,,0.00,VWS V14.01,2013-02-09 06:38:00,
2013-02-09 00:43:00,26.0,21.8,30.24,SE,135,10.0,18.0,84,0.00,,,0.00,VWS V14.01,2013-02-09 06:43:00,
2013-02-09 00:48:00,26.0,21.8,30.24,ESE,115,5.0,21.0,84,0.00,,,0.00,VWS V14.01,2013-02-09 06:48:00,
2013-02-09 00:53:00,26.0,21.8,30.24,ESE,113,16.0,21.0,84,0.00,,,0.00,VWS V14.01,2013-02-09 06:53:00,
2013-02-09 00:59:00,26.0,21.8,30.24,ESE,106,5.0,21.0,84,0.00,,,0.00,VWS V14.01,2013-02-09 06:59:00,
2013-02-09 01:00:00,26.1,22.2,30.22,SE,133,12.0,21.0,85,0.00,,,0.00,VWS V15.00,2013-02-09 07:00:00,
2013-02-09 01:04:00,26.0,21.8,30.24,ESE,121,10.0,13.0,84,0.00,,,0.00,VWS V14.01,2013-02-09 07:04:00,
2013-02-09 01:09:00,25.9,21.7,30.24,ESE,108,4.0,21.0,84,0.00,,,0.00,VWS V14.01,2013-02-09 07:09:00,
2013-02-09 01:15:00,26.0,21.8,30.24,SE,131,11.0,21.0,84,0.00,,,0.00,VWS V14.01,2013-02-09 07:15:00,
2013-02-09 01:20:00,26.0,22.1,30.23,SE,127,9.0,21.0,85,0.00,,,0.00,VWS V14.01,2013-02-09 07:20:00,
2013-02-09 01:25:00,26.0,22.1,30.23,SE,129,11.0,21.0,85,0.00,,,0.00,VWS V14.01,2013-02-09 07:25:00,
2013-02-09 01:30:00,26.0,22.1,30.23,SE,143,10.0,21.0,85,0.00,,,0.00,VWS V14.01,2013-02-09 07:30:00,
2013-02-09 01:35:00,26.0,22.1,30.22,ESE,119,7.0,18.0,85,0.00,,,0.00,VWS V14.01,2013-02-09 07:35:00,
2013-02-09 01:40:00,26.0,22.1,30.22,ESE,109,9.0,21.0,85,0.00,,,0.00,VWS V14.01,2013-02-09 07:40:00,
2013-02-09 01:46:00,26.0,22.1,30.22,ESE,112,9.0,21.0,85,0.00,,,0.00,VWS V14.01,2013-02-09 07:46:00,
2013-02-09 01:51:00,26.0,22.1,30.23,ESE,106,12.0,21.0,85,0.00,,,0.00,VWS V14.01,2013-02-09 07:51:00,
2013-02-09 01:56:00,26.1,22.2,30.22,East,95,9.0,21.0,85,0.00,,,0.00,VWS V14.01,2013-02-09 07:56:00,
2013-02-09 02:01:00,26.2,22.3,30.22,East,100,7.0,16.0,85,0.00,,,0.00,VWS V14.01,2013-02-09 08:01:00,
2013-02-09 02:07:00,26.2,22.3,30.22,East,96,9.0,18.0,85,0.00,,,0.00,VWS V14.01,2013-02-09 08:07:00,
2013-02-09 02:12:00,26.2,22.3,30.22,SSE,149,11.0,18.0,85,0.00,,,0.00,VWS V14.01,2013-02-09 08:12:00,
2013-02-09 02:17:00,26.3,22.4,30.22,ESE,121,4.0,19.0,85,0.00,,,0.00,VWS V14.01,2013-02-09 08:17:00,
2013-02-09 02:22:00,26.3,22.4,30.22,SSE,148,11.0,19.0,85,0.00,,,0.00,VWS V14.01,2013-02-09 08:22:00,
2013-02-09 02:27:00,26.3,22.4,30.21,ESE,117,12.0,19.0,85,0.00,,,0.00,VWS V14.01,2013-02-09 08:27:00,
2013-02-09 02:32:00,26.3,22.4,30.21,ESE,113,13.0,21.0,85,0.00,,,0.00,VWS V14.01,2013-02-09 08:32:00,
2013-02-09 02:37:00,26.4,22.5,30.20,SE,142,18.0,21.0,85,0.00,,,0.00,VWS V14.01,2013-02-09 08:37:00,
2013-02-09 02:43:00,26.4,22.5,30.19,ESE,114,11.0,23.0,85,0.00,,,0.00,VWS V14.01,2013-02-09 08:43:00,
2013-02-09 02:48:00,26.4,22.5,30.20,ESE,108,9.0,24.0,85,0.00,,,0.00,VWS V14.01,2013-02-09 08:48:00,
2013-02-09 02:53:00,26.4,22.5,30.20,SE,127,12.0,24.0,85,0.00,,,0.00,VWS V14.01,2013-02-09 08:53:00,
2013-02-09 02:59:00,26.5,22.6,30.20,SE,129,11.0,24.0,85,0.00,,,0.00,VWS V14.01,2013-02-09 08:59:00,
2013-02-09 03:04:00,26.4,22.5,30.20,SSE,152,7.0,14.0,85,0.00,,,0.00,VWS V14.01,2013-02-09 09:04:00,
2013-02-09 03:09:00,26.4,22.5,30.19,ESE,103,5.0,14.0,85,0.00,,,0.00,VWS V14.01,2013-02-09 09:09:00,
2013-02-09 03:14:00,26.4,22.5,30.19,SE,139,10.0,18.0,85,0.00,,,0.00,VWS V14.01,2013-02-09 09:14:00,
2013-02-09 03:19:00,26.4,22.5,30.19,ESE,121,19.0,22.0,85,0.00,,,0.00,VWS V14.01,2013-02-09 09:19:00,
2013-02-09 03:24:00,26.3,22.4,30.19,ESE,122,11.0,22.0,85,0.00,,,0.00,VWS V14.01,2013-02-09 09:24:00,
2013-02-09 03:29:00,26.2,22.3,30.19,SE,144,17.0,24.0,85,0.00,,,0.00,VWS V14.01,2013-02-09 09:29:00,
2013-02-09 03:35:00,26.2,22.3,30.18,East,101,15.0,19.0,85,0.00,,,0.00,VWS V14.01,2013-02-09 09:35:00,
2013-02-09 03:40:00,26.1,22.2,30.19,SE,132,14.0,19.0,85,0.00,,,0.00,VWS V14.01,2013-02-09 09:40:00,
2013-02-09 03:45:00,26.1,22.2,30.18,ESE,115,11.0,25.0,85,0.00,,,0.00,VWS V14.01,2013-02-09 09:45:00,
2013-02-09 03:51:00,26.1,22.2,30.17,SE,129,14.0,27.0,85,0.00,,,0.00,VWS V14.01,2013-02-09 09:51:00,
2013-02-09 03:56:00,26.1,22.2,30.17,ESE,110,11.0,27.0,85,0.00,,,0.00,VWS V14.01,2013-02-09 09:56:00,
2013-02-09 04:00:00,26.1,22.2,30.16,East,101,6.0,22.0,85,0.00,,,0.00,VWS V15.00,2013-02-09 10:00:00,
2013-02-09 04:01:00,26.1,22.2,30.17,ESE,119,6.0,13.0,85,0.00,,,0.00,VWS V14.01,2013-02-09 10:01:00,
2013-02-09 04:06:00,26.1,22.2,30.18,ESE,118,6.0,21.0,85,0.00,,,0.00,VWS V14.01,2013-02-09 10:06:00,
2013-02-09 04:11:00,26.1,22.2,30.17,SE,137,16.0,22.0,85,0.00,,,0.00,VWS V14.01,2013-02-09 10:11:00,
2013-02-09 04:16:00,26.1,22.2,30.17,SSE,155,10.0,22.0,85,0.00,,,0.00,VWS V14.01,2013-02-09 10:16:00,
2013-02-09 04:22:00,26.1,22.2,30.17,ESE,113,11.0,22.0,85,0.00,,,0.00,VWS V14.01,2013-02-09 10:22:00,
2013-02-09 04:27:00,26.1,22.2,30.17,ESE,121,7.0,22.0,85,0.00,,,0.00,VWS V14.01,2013-02-09 10:27:00,
2013-02-09 04:32:00,26.1,22.2,30.17,East,101,6.0,16.0,85,0.00,,,0.00,VWS V14.01,2013-02-09 10:32:00,
2013-02-09 04:37:00,26.1,22.2,30.17,ESE,105,9.0,19.0,85,0.00,,,0.00,VWS V14.01,2013-02-09 10:37:00,
2013-02-09 04:43:00,26.1,22.2,30.17,ESE,102,10.0,22.0,85,0.00,,,0.00,VWS V14.01,2013-02-09 10:43:00,
2013-02-09 04:48:00,26.1,22.2,30.17,East,100,9.0,22.0,85,0.00,,,0.00,VWS V14.01,2013-02-09 10:48:00,
2013-02-09 04:53:00,26.1,22.2,30.17,ESE,119,4.0,22.0,85,0.00,,,0.00,VWS V14.01,2013-02-09 10:53:00,
2013-02-09 04:58:00,26.1,22.2,30.17,ESE,115,10.0,22.0,85,0.00,,,0.00,VWS V14.01,2013-02-09 10:58:00,
2013-02-09 05:00:00,26.2,22.6,30.14,SE,138,12.0,24.0,86,0.00,,,0.00,VWS V15.00,2013-02-09 11:00:00,
2013-02-09 05:04:00,26.1,22.2,30.16,ESE,104,8.0,14.0,85,0.00,,,0.00,VWS V14.01,2013-02-09 11:04:00,
2013-02-09 05:09:00,26.1,22.5,30.16,SSE,157,7.0,14.0,86,0.00,,,0.00,VWS V14.01,2013-02-09 11:09:00,
2013-02-09 05:14:00,26.1,22.5,30.16,East,94,7.0,20.0,86,0.00,,,0.00,VWS V14.01,2013-02-09 11:14:00,
2013-02-09 05:19:00,26.1,22.2,30.15,SE,125,13.0,20.0,85,0.00,,,0.00,VWS V14.01,2013-02-09 11:19:00,
2013-02-09 05:25:00,26.1,22.2,30.15,SE,134,10.0,20.0,85,0.00,,,0.00,VWS V14.01,2013-02-09 11:25:00,
2013-02-09 05:30:00,26.1,22.2,30.16,SSE,150,3.0,20.0,85,0.00,,,0.00,VWS V14.01,2013-02-09 11:30:00,
2013-02-09 05:35:00,26.1,22.2,30.15,SE,144,12.0,19.0,85,0.00,,,0.00,VWS V14.01,2013-02-09 11:35:00,
2013-02-09 05:40:00,26.2,22.6,30.15,ESE,114,9.0,19.0,86,0.00,,,0.00,VWS V14.01,2013-02-09 11:40:00,
2013-02-09 05:45:00,26.2,22.3,30.14,East,97,12.0,19.0,85,0.00,,,0.00,VWS V14.01,2013-02-09 11:45:00,
2013-02-09 05:51:00,26.2,22.6,30.15,SE,127,12.0,19.0,86,0.00,,,0.00,VWS V14.01,2013-02-09 11:51:00,
2013-02-09 05:56:00,26.2,22.6,30.14,SSE,151,9.0,19.0,86,0.00,,,0.00,VWS V14.01,2013-02-09 11:56:00,
2013-02-09 06:00:00,26.5,22.9,30.13,ESE,110,10.0,24.0,86,0.00,,,0.00,VWS V15.00,2013-02-09 12:00:00,
2013-02-09 06:01:00,26.2,22.6,30.14,ESE,111,7.0,16.0,86,0.00,,,0.00,VWS V14.01,2013-02-09 12:01:00,
2013-02-09 06:06:00,26.2,22.6,30.14,ESE,119,13.0,16.0,86,0.00,,,0.00,VWS V14.01,2013-02-09 12:06:00,
2013-02-09 06:11:00,26.3,22.7,30.14,East,100,5.0,19.0,86,0.00,,,0.00,VWS V14.01,2013-02-09 12:11:00,
2013-02-09 06:17:00,26.3,22.7,30.14,SE,125,11.0,19.0,86,0.00,,,0.00,VWS V14.01,2013-02-09 12:17:00,
2013-02-09 06:22:00,26.3,22.7,30.14,ESE,121,10.0,19.0,86,0.00,,,0.00,VWS V14.01,2013-02-09 12:22:00,
2013-02-09 06:27:00,26.3,22.4,30.14,ESE,110,12.0,19.0,85,0.00,,,0.00,VWS V14.01,2013-02-09 12:27:00,
2013-02-09 06:32:00,26.3,22.4,30.14,East,96,4.0,14.0,85,0.00,,,0.00,VWS V14.01,2013-02-09 12:32:00,
2013-02-09 06:38:00,26.3,22.4,30.13,SE,142,14.0,17.0,85,0.00,,,0.00,VWS V14.01,2013-02-09 12:38:00,
2013-02-09 06:43:00,26.4,22.5,30.13,South,181,13.0,24.0,85,0.00,,,0.00,VWS V14.01,2013-02-09 12:43:00,
2013-02-09 06:48:00,26.4,22.5,30.13,South,176,10.0,24.0,85,0.00,,,0.00,VWS V14.01,2013-02-09 12:48:00,
2013-02-09 06:53:00,26.4,22.8,30.13,ESE,115,14.0,24.0,86,0.00,,,0.00,VWS V14.01,2013-02-09 12:53:00,
2013-02-09 06:58:00,26.4,22.8,30.13,ESE,119,12.0,24.0,86,0.00,,,0.00,VWS V14.01,2013-02-09 12:58:00,
2013-02-09 07:03:00,26.5,22.9,30.13,SE,146,4.0,16.0,86,0.00,,,0.00,VWS V14.01,2013-02-09 13:03:00,
2013-02-09 07:08:00,26.5,22.9,30.13,SE,137,15.0,19.0,86,0.00,,,0.00,VWS V14.01,2013-02-09 13:08:00,
2013-02-09 07:13:00,26.5,22.9,30.13,SE,136,7.0,22.0,86,0.00,,,0.00,VWS V14.01,2013-02-09 13:13:00,
2013-02-09 07:19:00,26.5,22.9,30.13,ESE,118,16.0,22.0,86,0.00,,,0.00,VWS V14.01,2013-02-09 13:19:00,
2013-02-09 07:24:00,26.5,22.9,30.13,ESE,116,13.0,22.0,86,0.00,,,0.00,VWS V14.01,2013-02-09 13:24:00,
2013-02-09 07:29:00,26.5,22.9,30.13,ESE,117,13.0,22.0,86,0.00,,,0.00,VWS V14.01,2013-02-09 13:29:00,
2013-02-09 07:30:00,27.0,23.1,30.14,South,169,14.0,19.0,85,0.00,,,0.00,VWS V15.00,2013-02-09 13:30:00,
2013-02-09 07:34:00,26.5,22.9,30.13,ESE,106,6.0,17.0,86,0.00,,,0.00,VWS V14.01,2013-02-09 13:34:00,
2013-02-09 07:39:00,26.5,22.9,30.13,SSE,154,12.0,17.0,86,0.00,,,0.00,VWS V14.01,2013-02-09 13:39:00,
2013-02-09 07:44:00,26.6,23.0,30.13,South,176,10.0,17.0,86,0.00,,,0.00,VWS V14.01,2013-02-09 13:44:00,
2013-02-09 07:50:00,26.6,23.0,30.13,SE,133,9.0,18.0,86,0.00,,,0.00,VWS V14.01,2013-02-09 13:50:00,
2013-02-09 07:55:00,26.7,23.1,30.13,SE,124,10.0,19.0,86,0.00,,,0.00,VWS V14.01,2013-02-09 13:55:00,
2013-02-09 08:00:00,26.7,23.1,30.14,South,169,2.0,21.0,86,0.00,,,0.00,VWS V14.01,2013-02-09 14:00:00,
2013-02-09 08:05:00,26.8,22.9,30.14,ESE,122,12.0,14.0,85,0.00,,,0.00,VWS V14.01,2013-02-09 14:05:00,
2013-02-09 08:11:00,26.9,23.3,30.14,ESE,116,7.0,14.0,86,0.00,,,0.00,VWS V14.01,2013-02-09 14:11:00,
2013-02-09 08:16:00,26.9,23.3,30.14,SE,131,6.0,14.0,86,0.00,,,0.00,VWS V14.01,2013-02-09 14:16:00,
2013-02-09 08:21:00,26.9,23.3,30.13,ESE,110,6.0,19.0,86,0.00,,,0.00,VWS V14.01,2013-02-09 14:21:00,
2013-02-09 08:26:00,27.0,23.1,30.13,South,169,6.0,19.0,85,0.00,,,0.00,VWS V14.01,2013-02-09 14:26:00,
2013-02-09 08:32:00,27.0,23.1,30.13,SE,143,11.0,14.0,85,0.00,,,0.00,VWS V14.01,2013-02-09 14:32:00,
2013-02-09 08:37:00,27.1,23.2,30.13,ESE,110,13.0,16.0,85,0.00,,,0.00,VWS V14.01,2013-02-09 14:37:00,
2013-02-09 08:42:00,27.2,23.3,30.13,South,186,4.0,16.0,85,0.00,,,0.00,VWS V14.01,2013-02-09 14:42:00,
2013-02-09 08:47:00,27.2,23.3,30.14,South,171,9.0,16.0,85,0.00,,,0.00,VWS V14.01,2013-02-09 14:47:00,
2013-02-09 08:52:00,27.3,25.3,30.13,SSE,153,4.0,16.0,92,0.00,,,0.00,VWS V14.01,2013-02-09 14:52:00,
2013-02-09 08:58:00,27.4,23.5,30.13,SSE,152,4.0,16.0,85,0.00,,,0.00,VWS V14.01,2013-02-09 14:58:00,
2013-02-09 09:00:00,28.3,24.1,30.13,SE,135,5.0,18.0,84,0.00,,,0.00,VWS V15.00,2013-02-09 15:00:00,
2013-02-09 09:03:00,27.5,23.6,30.13,SSE,148,3.0,13.0,85,0.00,,,0.00,VWS V14.01,2013-02-09 15:03:00,
2013-02-09 09:08:00,27.6,23.7,30.13,SE,139,18.0,18.0,85,0.00,,,0.00,VWS V14.01,2013-02-09 15:08:00,
2013-02-09 09:13:00,27.6,23.7,30.13,ESE,123,5.0,18.0,85,0.00,,,0.00,VWS V14.01,2013-02-09 15:13:00,
2013-02-09 09:18:00,27.7,23.8,30.13,SSE,164,11.0,18.0,85,0.00,,,0.00,VWS V14.01,2013-02-09 15:18:00,
2013-02-09 09:24:00,27.8,23.9,30.13,SSE,148,6.0,18.0,85,0.00,,,0.00,VWS V14.01,2013-02-09 15:24:00,
2013-02-09 09:29:00,27.9,24.0,30.13,SE,137,4.0,18.0,85,0.00,,,0.00,VWS V14.01,2013-02-09 15:29:00,
2013-02-09 09:30:00,28.7,24.5,30.13,SE,128,2.0,16.0,84,0.00,,,0.00,VWS V15.00,2013-02-09 15:30:00,
2013-02-09 09:34:00,27.9,24.0,30.13,ESE,123,7.0,12.0,85,0.00,,,0.00,VWS V14.01,2013-02-09 15:34:00,
2013-02-09 09:39:00,28.0,24.1,30.13,SSE,148,6.0,16.0,85,0.00,,,0.00,VWS V14.01,2013-02-09 15:39:00,
2013-02-09 09:44:00,28.1,24.2,30.13,SSE,158,11.0,18.0,85,0.00,,,0.00,VWS V14.01,2013-02-09 15:44:00,
2013-02-09 09:50:00,28.1,24.2,30.13,SSE,164,2.0,18.0,85,0.00,,,0.00,VWS V14.01,2013-02-09 15:50:00,
2013-02-09 09:55:00,28.2,24.3,30.13,SE,125,6.0,18.0,85,0.00,,,0.00,VWS V14.01,2013-02-09 15:55:00,
2013-02-09 10:00:00,28.3,24.1,30.13,SSE,148,10.0,18.0,84,0.00,,,0.00,VWS V14.01,2013-02-09 16:00:00,
2013-02-09 10:06:00,28.3,24.1,30.13,ESE,120,7.0,12.0,84,0.00,,,0.00,VWS V14.01,2013-02-09 16:06:00,
2013-02-09 10:11:00,28.4,24.2,30.13,South,174,7.0,14.0,84,0.00,,,0.00,VWS V14.01,2013-02-09 16:11:00,
2013-02-09 10:16:00,28.4,24.2,30.12,SE,142,3.0,14.0,84,0.00,,,0.00,VWS V14.01,2013-02-09 16:16:00,
2013-02-09 10:21:00,28.5,24.3,30.12,ESE,123,2.0,15.0,84,0.00,,,0.00,VWS V14.01,2013-02-09 16:21:00,
2013-02-09 10:27:00,28.6,24.4,30.12,SE,132,5.0,15.0,84,0.00,,,0.00,VWS V14.01,2013-02-09 16:27:00,
2013-02-09 10:30:00,29.8,25.3,30.12,SE,130,5.0,17.0,83,0.00,,,0.00,VWS V15.00,2013-02-09 16:30:00,
2013-02-09 10:32:00,28.7,24.5,30.13,SE,144,3.0,5.0,84,0.00,,,0.00,VWS V14.01,2013-02-09 16:32:00,
2013-02-09 10:37:00,28.9,24.7,30.13,ESE,113,10.0,11.0,84,0.00,,,0.00,VWS V14.01,2013-02-09 16:37:00,
2013-02-09 10:42:00,29.1,24.9,30.13,ESE,121,14.0,14.0,84,0.00,,,0.00,VWS V14.01,2013-02-09 16:42:00,
2013-02-09 10:48:00,29.2,25.0,30.12,East,98,3.0,14.0,84,0.00,,,0.00,VWS V14.01,2013-02-09 16:48:00,
2013-02-09 10:53:00,29.3,25.1,30.13,SE,128,7.0,14.0,84,0.00,,,0.00,VWS V14.01,2013-02-09 16:53:00,
2013-02-09 10:58:00,29.4,24.9,30.13,South,179,2.0,16.0,83,0.00,,,0.00,VWS V14.01,2013-02-09 16:58:00,
2013-02-09 11:03:00,29.5,25.0,30.13,South,179,5.0,10.0,83,0.00,,,0.00,VWS V14.01,2013-02-09 17:03:00,
2013-02-09 11:08:00,29.6,25.1,30.13,SSE,159,4.0,12.0,83,0.00,,,0.00,VWS V14.01,2013-02-09 17:08:00,
2013-02-09 11:14:00,29.6,25.1,30.13,SSE,158,6.0,12.0,83,0.00,,,0.00,VWS V14.01,2013-02-09 17:14:00,
2013-02-09 11:19:00,29.6,25.1,30.13,ESE,116,7.0,12.0,83,0.00,,,0.00,VWS V14.01,2013-02-09 17:19:00,
2013-02-09 11:24:00,29.7,25.2,30.12,SSE,153,5.0,13.0,83,0.00,,,0.00,VWS V14.01,2013-02-09 17:24:00,
2013-02-09 11:29:00,29.8,25.3,30.12,SE,146,9.0,17.0,83,0.00,,,0.00,VWS V14.01,2013-02-09 17:29:00,
2013-02-09 11:34:00,29.9,25.4,30.12,South,176,5.0,12.0,83,0.00,,,0.00,VWS V14.01,2013-02-09 17:34:00,
2013-02-09 11:40:00,30.1,25.9,30.12,ESE,109,3.0,12.0,84,0.00,,,0.00,VWS V14.01,2013-02-09 17:40:00,
2013-02-09 11:45:00,30.2,25.7,30.11,SSE,159,5.0,12.0,83,0.00,,,0.00,VWS V14.01,2013-02-09 17:45:00,
2013-02-09 11:50:00,30.2,25.7,30.11,ESE,106,2.0,13.0,83,0.00,,,0.00,VWS V14.01,2013-02-09 17:50:00,
2013-02-09 11:55:00,30.3,25.8,30.11,SSE,167,12.0,19.0,83,0.00,,,0.00,VWS V14.01,2013-02-09 17:55:00,
2013-02-09 12:00:00,30.3,25.8,30.11,South,177,2.0,19.0,83,0.00,,,0.00,VWS V14.01,2013-02-09 18:00:00,
2013-02-09 12:05:00,30.4,25.9,30.10,SE,131,3.0,11.0,83,0.00,,,0.00,VWS V14.01,2013-02-09 18:05:00,
2013-02-09 12:10:00,30.6,26.1,30.10,ESE,110,2.0,13.0,83,0.00,,,0.00,VWS V14.01,2013-02-09 18:10:00,
2013-02-09 12:16:00,30.7,26.2,30.10,SE,139,0.0,13.0,83,0.00,,,0.00,VWS V14.01,2013-02-09 18:16:00,
2013-02-09 12:21:00,30.8,26.3,30.09,SE,124,0.0,13.0,83,0.00,,,0.00,VWS V14.01,2013-02-09 18:21:00,
2013-02-09 12:26:00,30.9,26.4,30.09,SE,134,0.0,13.0,83,0.00,,,0.00,VWS V14.01,2013-02-09 18:26:00,
2013-02-09 12:31:00,31.0,26.5,30.09,SSE,158,5.0,13.0,83,0.00,,,0.00,VWS V14.01,2013-02-09 18:31:00,
2013-02-09 12:37:00,31.0,26.5,30.08,ESE,115,0.0,13.0,83,0.00,,,0.00,VWS V14.01,2013-02-09 18:37:00,
2013-02-09 12:42:00,31.1,26.5,30.08,SE,127,9.0,13.0,83,0.00,,,0.00,VWS V14.01,2013-02-09 18:42:00,
2013-02-09 12:47:00,31.0,26.5,30.08,SE,146,7.0,16.0,83,0.00,,,0.00,VWS V14.01,2013-02-09 18:47:00,
2013-02-09 12:52:00,30.9,26.4,30.08,SE,133,4.0,16.0,83,0.00,,,0.00,VWS V14.01,2013-02-09 18:52:00,
2013-02-09 12:57:00,31.0,26.5,30.08,ESE,121,1.0,16.0,83,0.00,,,0.00,VWS V14.01,2013-02-09 18:57:00,
2013-02-09 13:02:00,31.1,26.5,30.07,SE,138,10.0,13.0,83,0.00,,,0.00,VWS V14.01,2013-02-09 19:02:00,
2013-02-09 13:08:00,31.1,26.5,30.07,SSE,158,5.0,19.0,83,0.00,,,0.00,VWS V14.01,2013-02-09 19:08:00,
2013-02-09 13:13:00,31.0,26.5,30.07,SSE,150,4.0,19.0,83,0.00,,,0.00,VWS V14.01,2013-02-09 19:13:00,
2013-02-09 13:18:00,31.0,26.5,30.07,SE,129,12.0,19.0,83,0.00,,,0.00,VWS V14.01,2013-02-09 19:18:00,
2013-02-09 13:23:00,31.1,26.5,30.06,ESE,108,12.0,19.0,83,0.00,,,0.00,VWS V14.01,2013-02-09 19:23:00,
2013-02-09 13:28:00,31.1,26.5,30.06,SE,143,11.0,19.0,83,0.00,,,0.00,VWS V14.01,2013-02-09 19:28:00,
2013-02-09 13:33:00,31.2,26.6,30.06,ESE,104,3.0,11.0,83,0.00,,,0.00,VWS V14.01,2013-02-09 19:33:00,
2013-02-09 13:39:00,31.3,26.8,30.06,SE,128,10.0,14.0,83,0.00,,,0.00,VWS V14.01,2013-02-09 19:39:00,
2013-02-09 13:44:00,31.3,26.8,30.05,East,84,11.0,15.0,83,0.00,,,0.00,VWS V14.01,2013-02-09 19:44:00,
2013-02-09 13:49:00,31.4,27.1,30.05,SSE,152,13.0,15.0,84,0.00,,,0.00,VWS V14.01,2013-02-09 19:49:00,
2013-02-09 13:54:00,31.4,27.1,30.05,SE,143,5.0,15.0,84,0.00,,,0.00,VWS V14.01,2013-02-09 19:54:00,
2013-02-09 13:59:00,31.5,27.2,30.05,ESE,112,5.0,15.0,84,0.00,,,0.00,VWS V14.01,2013-02-09 19:59:00,
2013-02-09 14:04:00,31.5,27.2,30.05,ESE,123,9.0,11.0,84,0.00,,,0.00,VWS V14.01,2013-02-09 20:04:00,
2013-02-09 14:10:00,31.6,27.3,30.04,ESE,120,5.0,14.0,84,0.00,,,0.00,VWS V14.01,2013-02-09 20:10:00,
2013-02-09 14:15:00,31.7,27.4,30.04,ESE,114,4.0,17.0,84,0.00,,,0.00,VWS V14.01,2013-02-09 20:15:00,
2013-02-09 14:20:00,31.8,27.5,30.03,East,94,5.0,17.0,84,0.00,,,0.00,VWS V14.01,2013-02-09 20:20:00,
2013-02-09 14:25:00,31.9,27.6,30.03,SE,126,8.0,17.0,84,0.00,,,0.00,VWS V14.01,2013-02-09 20:25:00,
2013-02-09 14:30:00,31.9,27.6,30.03,ESE,102,7.0,17.0,84,0.00,,,0.00,VWS V14.01,2013-02-09 20:30:00,
2013-02-09 14:35:00,32.0,27.7,30.03,ESE,121,4.0,12.0,84,0.00,,,0.00,VWS V14.01,2013-02-09 20:35:00,
2013-02-09 14:41:00,32.1,27.8,30.02,SE,143,12.0,14.0,84,0.00,,,0.00,VWS V14.01,2013-02-09 20:41:00,
2013-02-09 14:46:00,32.2,27.6,30.02,ESE,110,4.0,14.0,83,0.00,,,0.00,VWS V14.01,2013-02-09 20:46:00,
2013-02-09 14:51:00,32.3,27.7,30.02,East,93,12.0,14.0,83,0.00,,,0.00,VWS V14.01,2013-02-09 20:51:00,
2013-02-09 14:56:00,32.3,27.7,30.02,ESE,115,9.0,14.0,83,0.00,,,0.00,VWS V14.01,2013-02-09 20:56:00,
2013-02-09 15:00:00,32.5,28.2,30.01,SE,133,7.0,12.0,84,0.00,,,0.00,VWS V15.00,2013-02-09 21:00:00,
2013-02-09 15:02:00,32.3,28.0,30.02,ESE,119,9.0,10.0,84,0.00,,,0.00,VWS V14.01,2013-02-09 21:02:00,
2013-02-09 15:07:00,32.3,27.7,30.02,ESE,110,5.0,11.0,83,0.00,,,0.00,VWS V14.01,2013-02-09 21:07:00,
2013-02-09 15:12:00,32.4,27.8,30.02,East,92,5.0,11.0,83,0.00,,,0.00,VWS V14.01,2013-02-09 21:12:00,
2013-02-09 15:17:00,32.4,27.8,30.02,ESE,116,6.0,11.0,83,0.00,,,0.00,VWS V14.01,2013-02-09 21:17:00,
2013-02-09 15:23:00,32.4,27.8,30.02,SE,136,4.0,11.0,83,0.00,,,0.00,VWS V14.01,2013-02-09 21:23:00,
2013-02-09 15:28:00,32.4,28.1,30.01,ESE,113,9.0,11.0,84,0.00,,,0.00,VWS V14.01,2013-02-09 21:28:00,
2013-02-09 15:30:00,32.6,28.3,30.00,SE,124,11.0,13.0,84,0.00,,,0.00,VWS V15.00,2013-02-09 21:30:00,
2013-02-09 15:33:00,32.4,28.1,30.01,East,97,4.0,10.0,84,0.00,,,0.00,VWS V14.01,2013-02-09 21:33:00,
2013-02-09 15:38:00,32.5,28.2,30.01,ESE,123,6.0,11.0,84,0.00,,,0.00,VWS V14.01,2013-02-09 21:38:00,
2013-02-09 15:44:00,32.5,28.2,30.01,SE,126,10.0,12.0,84,0.00,,,0.00,VWS V14.01,2013-02-09 21:44:00,
2013-02-09 15:49:00,32.5,28.2,30.01,ESE,119,2.0,12.0,84,0.00,,,0.00,VWS V14.01,2013-02-09 21:49:00,
2013-02-09 15:54:00,32.5,28.2,30.01,ESE,121,6.0,12.0,84,0.00,,,0.00,VWS V14.01,2013-02-09 21:54:00,
2013-02-09 16:00:00,32.5,28.2,30.01,ESE,123,9.0,12.0,84,0.00,,,0.00,VWS V14.01,2013-02-09 22:00:00,
2013-02-09 16:05:00,32.5,28.2,30.01,SE,126,5.0,11.0,84,0.00,,,0.00,VWS V14.01,2013-02-09 22:05:00,
2013-02-09 16:10:00,32.5,28.2,30.00,ESE,103,5.0,11.0,84,0.00,,,0.00,VWS V14.01,2013-02-09 22:10:00,
2013-02-09 16:15:00,32.5,28.2,30.00,East,98,4.0,11.0,84,0.00,,,0.00,VWS V14.01,2013-02-09 22:15:00,
2013-02-09 16:21:00,32.6,28.3,30.00,SE,126,5.0,11.0,84,0.00,,,0.00,VWS V14.01,2013-02-09 22:21:00,
2013-02-09 16:26:00,32.6,28.3,30.00,ESE,108,7.0,11.0,84,0.00,,,0.00,VWS V14.01,2013-02-09 22:26:00,
2013-02-09 16:31:00,32.6,28.3,30.00,East,100,5.0,11.0,84,0.00,,,0.00,VWS V14.01,2013-02-09 22:31:00,
2013-02-09 16:36:00,32.6,28.3,29.99,ESE,104,5.0,11.0,84,0.00,,,0.00,VWS V14.01,2013-02-09 22:36:00,
2013-02-09 16:42:00,32.6,28.3,29.99,ESE,119,5.0,11.0,84,0.00,,,0.00,VWS V14.01,2013-02-09 22:42:00,
2013-02-09 16:47:00,32.6,28.3,29.99,East,94,5.0,11.0,84,0.00,,,0.00,VWS V14.01,2013-02-09 22:47:00,
2013-02-09 16:52:00,32.6,28.3,29.99,ESE,102,6.0,11.0,84,0.00,,,0.00,VWS V14.01,2013-02-09 22:52:00,
2013-02-09 16:57:00,32.6,28.3,29.99,SE,137,9.0,12.0,84,0.00,,,0.00,VWS V14.01,2013-02-09 22:57:00,
2013-02-09 17:03:00,32.6,28.3,29.99,ESE,112,3.0,9.0,84,0.00,,,0.00,VWS V14.01,2013-02-09 23:03:00,
2013-02-09 17:08:00,32.6,28.3,29.99,ESE,119,6.0,9.0,84,0.00,,,0.00,VWS V14.01,2013-02-09 23:08:00,
2013-02-09 17:13:00,32.7,28.4,29.99,East,101,3.0,10.0,84,0.00,,,0.00,VWS V14.01,2013-02-09 23:13:00,
2013-02-09 17:18:00,32.7,28.4,29.99,ESE,103,10.0,13.0,84,0.00,,,0.00,VWS V14.01,2013-02-09 23:18:00,
2013-02-09 17:24:00,32.7,28.4,29.99,ESE,110,3.0,13.0,84,0.00,,,0.00,VWS V14.01,2013-02-09 23:24:00,
2013-02-09 17:29:00,32.7,28.4,29.99,ESE,111,4.0,13.0,84,0.00,,,0.00,VWS V14.01,2013-02-09 23:29:00,
2013-02-09 17:34:00,32.6,28.6,29.98,ESE,115,6.0,15.0,85,0.00,,,0.00,VWS V14.01,2013-02-09 23:34:00,
2013-02-09 17:39:00,32.6,28.6,29.99,ESE,107,5.0,15.0,85,0.00,,,0.00,VWS V14.01,2013-02-09 23:39:00,
2013-02-09 17:44:00,32.6,28.6,29.98,East,101,10.0,15.0,85,0.00,,,0.00,VWS V14.01,2013-02-09 23:44:00,
2013-02-09 17:50:00,32.5,28.5,29.98,East,100,6.0,15.0,85,0.00,,,0.00,VWS V14.01,2013-02-09 23:50:00,
2013-02-09 17:55:00,32.4,28.4,29.98,ESE,104,5.0,15.0,85,0.00,,,0.00,VWS V14.01,2013-02-09 23:55:00,
2013-02-09 18:00:00,32.4,28.4,29.98,East,94,7.0,15.0,85,0.00,,,0.00,VWS V14.01,2013-02-10 00:00:00,
2013-02-09 18:06:00,32.3,28.3,29.98,ESE,103,6.0,11.0,85,0.00,,,0.00,VWS V14.01,2013-02-10 00:06:00,
2013-02-09 18:11:00,32.2,28.2,29.98,ESE,104,8.0,11.0,85,0.00,,,0.00,VWS V14.01,2013-02-10 00:11:00,
2013-02-09 18:17:00,32.1,28.1,29.98,East,85,4.0,11.0,85,0.00,,,0.00,VWS V14.01,2013-02-10 00:17:00,
2013-02-09 18:22:00,32.1,28.1,29.98,East,83,9.0,12.0,85,0.00,,,0.00,VWS V14.01,2013-02-10 00:22:00,
2013-02-09 18:27:00,32.1,28.1,29.98,ESE,110,8.0,12.0,85,0.00,,,0.00,VWS V14.01,2013-02-10 00:27:00,
2013-02-09 18:32:00,32.1,28.4,29.98,ESE,123,7.0,11.0,86,0.00,,,0.00,VWS V14.01,2013-02-10 00:32:00,
2013-02-09 18:37:00,32.0,28.3,29.98,ESE,112,3.0,13.0,86,0.00,,,0.00,VWS V14.01,2013-02-10 00:37:00,
2013-02-09 18:43:00,32.0,28.3,29.98,ESE,106,7.0,14.0,86,0.00,,,0.00,VWS V14.01,2013-02-10 00:43:00,
2013-02-09 18:48:00,31.9,28.2,29.98,ESE,104,7.0,14.0,86,0.00,,,0.00,VWS V14.01,2013-02-10 00:48:00,
2013-02-09 18:53:00,31.9,28.2,29.98,ESE,112,6.0,14.0,86,0.00,,,0.00,VWS V14.01,2013-02-10 00:53:00,
2013-02-09 18:58:00,31.9,28.2,29.98,East,90,4.0,15.0,86,0.00,,,0.00,VWS V14.01,2013-02-10 00:58:00,
2013-02-09 19:00:00,31.2,27.8,29.97,East,94,3.0,18.0,87,0.00,,,0.00,VWS V15.00,2013-02-10 01:00:00,
2013-02-09 19:03:00,31.8,28.1,29.98,ESE,107,11.0,14.0,86,0.00,,,0.00,VWS V14.01,2013-02-10 01:03:00,
2013-02-09 19:09:00,31.7,28.0,29.98,ESE,103,12.0,15.0,86,0.00,,,0.00,VWS V14.01,2013-02-10 01:09:00,
2013-02-09 19:14:00,31.7,28.0,29.98,East,100,8.0,18.0,86,0.00,,,0.00,VWS V14.01,2013-02-10 01:14:00,
2013-02-09 19:19:00,31.7,28.0,29.98,ESE,102,10.0,18.0,86,0.00,,,0.00,VWS V14.01,2013-02-10 01:19:00,
2013-02-09 19:24:00,31.6,28.2,29.98,SE,137,11.0,18.0,87,0.00,,,0.00,VWS V14.01,2013-02-10 01:24:00,
2013-02-09 19:29:00,31.6,28.2,29.99,SE,140,9.0,18.0,87,0.00,,,0.00,VWS V14.01,2013-02-10 01:29:00,
2013-02-09 19:35:00,31.6,28.2,29.98,ESE,104,7.0,17.0,87,0.00,,,0.00,VWS V14.01,2013-02-10 01:35:00,
2013-02-09 19:40:00,31.6,28.2,29.98,ESE,108,4.0,17.0,87,0.00,,,0.00,VWS V14.01,2013-02-10 01:40:00,
2013-02-09 19:45:00,31.5,28.1,29.98,ESE,108,6.0,17.0,87,0.00,,,0.00,VWS V14.01,2013-02-10 01:45:00,
2013-02-09 19:50:00,31.4,28.0,29.98,ESE,110,10.0,17.0,87,0.00,,,0.00,VWS V14.01,2013-02-10 01:50:00,
2013-02-09 19:55:00,31.3,27.9,29.97,ESE,110,9.0,18.0,87,0.00,,,0.00,VWS V14.01,2013-02-10 01:55:00,
2013-02-09 20:00:00,31.2,27.8,29.97,East,94,3.0,18.0,87,0.00,,,0.00,VWS V14.01,2013-02-10 02:00:00,
2013-02-09 20:05:00,31.2,27.8,29.97,ESE,121,11.0,17.0,87,0.00,,,0.00,VWS V14.01,2013-02-10 02:05:00,
2013-02-09 20:11:00,31.1,27.7,29.97,East,98,13.0,17.0,87,0.00,,,0.00,VWS V14.01,2013-02-10 02:11:00,
2013-02-09 20:16:00,31.0,27.6,29.97,ESE,110,8.0,18.0,87,0.00,,,0.00,VWS V14.01,2013-02-10 02:16:00,
2013-02-09 20:21:00,31.0,27.6,29.97,East,99,11.0,18.0,87,0.00,,,0.00,VWS V14.01,2013-02-10 02:21:00,
2013-02-09 20:26:00,30.9,27.8,29.96,ESE,114,11.0,18.0,88,0.00,,,0.00,VWS V14.01,2013-02-10 02:26:00,
2013-02-09 20:31:00,30.8,27.7,29.96,ESE,106,15.0,17.0,88,0.00,,,0.00,VWS V14.01,2013-02-10 02:31:00,
2013-02-09 20:37:00,30.8,27.4,29.97,SE,130,7.0,17.0,87,0.00,,,0.00,VWS V14.01,2013-02-10 02:37:00,
2013-02-09 20:42:00,30.8,27.4,29.97,East,95,5.0,17.0,87,0.00,,,0.00,VWS V14.01,2013-02-10 02:42:00,
2013-02-09 20:47:00,30.8,27.4,29.97,ESE,117,6.0,17.0,87,0.00,,,0.00,VWS V14.01,2013-02-10 02:47:00,
2013-02-09 20:52:00,30.8,27.4,29.97,ESE,116,4.0,17.0,87,0.00,,,0.00,VWS V14.01,2013-02-10 02:52:00,
2013-02-09 20:57:00,30.8,27.4,29.98,SE,127,4.0,17.0,87,0.00,,,0.00,VWS V14.01,2013-02-10 02:57:00,
2013-02-09 21:00:00,30.1,27.0,29.98,SE,128,7.0,14.0,88,0.00,,,0.00,VWS V15.00,2013-02-10 03:00:00,
2013-02-09 21:03:00,30.8,27.4,29.98,ESE,106,9.0,14.0,87,0.00,,,0.00,VWS V14.01,2013-02-10 03:03:00,
2013-02-09 21:08:00,30.8,27.4,29.99,SE,127,10.0,20.0,87,0.00,,,0.00,VWS V14.01,2013-02-10 03:08:00,
2013-02-09 21:13:00,30.7,27.3,29.98,ESE,120,6.0,20.0,87,0.00,,,0.00,VWS V14.01,2013-02-10 03:13:00,
2013-02-09 21:18:00,30.7,27.3,29.98,East,87,4.0,20.0,87,0.00,,,0.00,VWS V14.01,2013-02-10 03:18:00,
2013-02-09 21:23:00,30.7,27.3,29.98,ESE,108,7.0,20.0,87,0.00,,,0.00,VWS V14.01,2013-02-10 03:23:00,
2013-02-09 21:28:00,30.6,27.2,29.98,ESE,112,10.0,20.0,87,0.00,,,0.00,VWS V14.01,2013-02-10 03:28:00,
2013-02-09 21:34:00,30.4,27.0,29.98,ESE,103,8.0,11.0,87,0.00,,,0.00,VWS V14.01,2013-02-10 03:34:00,
2013-02-09 21:39:00,30.3,26.9,29.98,East,100,1.0,14.0,87,0.00,,,0.00,VWS V14.01,2013-02-10 03:39:00,
2013-02-09 21:44:00,30.2,26.8,29.98,ESE,108,4.0,14.0,87,0.00,,,0.00,VWS V14.01,2013-02-10 03:44:00,
2013-02-09 21:49:00,30.1,27.0,29.98,SE,128,7.0,14.0,88,0.00,,,0.00,VWS V14.01,2013-02-10 03:49:00,
2013-02-09 21:55:00,30.1,27.0,29.98,ESE,109,3.0,14.0,88,0.00,,,0.00,VWS V14.01,2013-02-10 03:55:00,
2013-02-09 22:00:00,30.1,27.0,29.98,ESE,120,3.0,14.0,88,0.00,,,0.00,VWS V14.01,2013-02-10 04:00:00,
2013-02-09 22:05:00,30.0,26.9,29.98,ESE,110,8.0,11.0,88,0.00,,,0.00,VWS V14.01,2013-02-10 04:05:00,
2013-02-09 22:11:00,30.0,26.9,29.98,SE,124,7.0,13.0,88,0.00,,,0.00,VWS V14.01,2013-02-10 04:11:00,
2013-02-09 22:16:00,30.0,26.9,29.98,East,88,5.0,13.0,88,0.00,,,0.00,VWS V14.01,2013-02-10 04:16:00,
2013-02-09 22:21:00,30.0,26.6,29.98,SE,135,6.0,14.0,87,0.00,,,0.00,VWS V14.01,2013-02-10 04:21:00,
2013-02-09 22:26:00,30.0,26.6,29.97,ESE,102,7.0,14.0,87,0.00,,,0.00,VWS V14.01,2013-02-10 04:26:00,
2013-02-09 22:31:00,29.9,26.5,29.97,East,93,12.0,12.0,87,0.00,,,0.00,VWS V14.01,2013-02-10 04:31:00,
2013-02-09 22:37:00,29.9,26.5,29.97,East,101,12.0,15.0,87,0.00,,,0.00,VWS V14.01,2013-02-10 04:37:00,
2013-02-09 22:42:00,29.8,26.4,29.96,ESE,108,8.0,15.0,87,0.00,,,0.00,VWS V14.01,2013-02-10 04:42:00,
2013-02-09 22:47:00,29.8,26.4,29.96,ESE,122,5.0,15.0,87,0.00,,,0.00,VWS V14.01,2013-02-10 04:47:00,
2013-02-09 22:52:00,29.8,26.4,29.96,East,79,5.0,15.0,87,0.00,,,0.00,VWS V14.01,2013-02-10 04:52:00,
2013-02-09 22:58:00,29.8,26.4,29.96,ESE,114,9.0,15.0,87,0.00,,,0.00,VWS V14.01,2013-02-10 04:58:00,
2013-02-09 23:00:00,29.8,26.4,29.96,East,98,8.0,15.0,87,0.00,,,0.00,VWS V14.01,2013-02-10 05:00:00,
2013-02-09 23:01:00,29.8,26.4,29.96,ESE,119,9.0,12.0,87,0.00,,,0.00,VWS V14.01,2013-02-10 05:01:00,
2013-02-09 23:02:00,29.7,26.3,29.96,SE,136,9.0,13.0,87,0.00,,,0.00,VWS V14.01,2013-02-10 05:02:00,
2013-02-09 23:07:00,29.7,26.3,29.96,ESE,115,6.0,17.0,87,0.00,,,0.00,VWS V14.01,2013-02-10 05:07:00,
2013-02-09 23:12:00,29.7,26.3,29.96,East,101,7.0,17.0,87,0.00,,,0.00,VWS V14.01,2013-02-10 05:12:00,
2013-02-09 23:17:00,29.7,26.3,29.96,SE,127,9.0,17.0,87,0.00,,,0.00,VWS V14.01,2013-02-10 05:17:00,
2013-02-09 23:22:00,29.7,26.3,29.95,ESE,108,10.0,17.0,87,0.00,,,0.00,VWS V14.01,2013-02-10 05:22:00,
2013-02-09 23:27:00,29.7,26.3,29.96,ESE,108,9.0,17.0,87,0.00,,,0.00,VWS V14.01,2013-02-10 05:27:00,
2013-02-09 23:32:00,29.7,26.3,29.95,ESE,114,5.0,12.0,87,0.00,,,0.00,VWS V14.01,2013-02-10 05:32:00,
2013-02-09 23:38:00,29.7,26.3,29.95,ESE,106,6.0,12.0,87,0.00,,,0.00,VWS V14.01,2013-02-10 05:38:00,
2013-02-09 23:43:00,29.7,26.3,29.95,ESE,109,6.0,12.0,87,0.00,,,0.00,VWS V14.01,2013-02-10 05:43:00,
2013-02-09 23:48:00,29.6,25.9,29.94,ESE,113,9.0,17.0,86,0.00,,,0.00,VWS V14.01,2013-02-10 05:48:00,
2013-02-09 23:53:00,29.6,25.9,29.94,ESE,109,4.0,17.0,86,0.00,,,0.00,VWS V14.01,2013-02-10 05:53:00,
2013-02-09 23:59:00,29.6,25.9,29.94,East,96,9.0,17.0,86,0.00,,,0.00,VWS V14.01,2013-02-10 05:59:00,